createdAt,value
2022-12-23T00:00:35.472Z,998.97
2022-12-23T00:01:35.247Z,998.92
2022-12-23T00:02:35.377Z,998.93
2022-12-23T00:03:35.704Z,998.94
2022-12-23T00:04:35.135Z,998.83
2022-12-23T00:05:37.971Z,998.87
2022-12-23T00:06:35.125Z,998.89
2022-12-23T00:07:35.124Z,998.90
2022-12-23T00:08:35.109Z,998.96
2022-12-23T00:09:50.835Z,998.93
2022-12-23T00:10:35.076Z,998.94
2022-12-23T00:11:35.066Z,998.90
2022-12-23T00:12:35.039Z,998.89
2022-12-23T00:13:35.036Z,998.91
2022-12-23T00:14:35.025Z,998.97
2022-12-23T00:15:35.036Z,998.96
2022-12-23T00:16:35.359Z,998.99
2022-12-23T00:17:34.978Z,998.95
2022-12-23T00:18:34.988Z,998.86
2022-12-23T00:19:34.961Z,998.94
2022-12-23T00:20:34.956Z,999.00
2022-12-23T00:21:34.985Z,998.97
2022-12-23T00:22:35.180Z,999.00
2022-12-23T00:23:34.925Z,998.99
2022-12-23T00:24:35.195Z,998.98
2022-12-23T00:25:34.901Z,998.97
2022-12-23T00:26:35.170Z,999.03
2022-12-23T00:27:37.670Z,998.99
2022-12-23T00:28:35.417Z,999.09
2022-12-23T00:29:35.236Z,999.04
2022-12-23T00:30:34.891Z,999.03
2022-12-23T00:31:34.875Z,999.09
2022-12-23T00:32:34.801Z,999.06
2022-12-23T00:33:34.810Z,999.04
2022-12-23T00:34:34.763Z,999.03
2022-12-23T00:35:34.776Z,999.09
2022-12-23T00:36:38.699Z,999.03
2022-12-23T00:37:35.726Z,999.08
2022-12-23T00:38:34.725Z,999.04
2022-12-23T00:39:34.740Z,999.04
2022-12-23T00:40:34.705Z,999.02
2022-12-23T00:41:34.689Z,999.06
2022-12-23T00:42:34.760Z,999.01
2022-12-23T00:43:34.663Z,999.00
2022-12-23T00:44:34.649Z,999.00
2022-12-23T00:45:34.704Z,999.03
2022-12-23T00:46:34.619Z,999.06
2022-12-23T00:47:34.607Z,999.04
2022-12-23T00:48:34.588Z,999.03
2022-12-23T00:49:34.611Z,999.07
2022-12-23T00:50:34.579Z,998.99
2022-12-23T00:51:38.469Z,999.10
2022-12-23T00:52:34.533Z,999.07
2022-12-23T00:53:34.556Z,999.06
2022-12-23T00:54:34.522Z,999.13
2022-12-23T00:55:34.513Z,999.12
2022-12-23T00:56:34.514Z,999.15
2022-12-23T00:57:34.590Z,999.12
2022-12-23T00:58:35.307Z,999.11
2022-12-23T00:59:34.488Z,999.11
2022-12-23T01:00:34.451Z,999.07
2022-12-23T01:01:34.581Z,999.04
2022-12-23T01:02:34.574Z,999.08
2022-12-23T01:03:34.737Z,999.14
2022-12-23T01:04:34.395Z,999.11
2022-12-23T01:05:34.398Z,999.13
2022-12-23T01:06:34.371Z,999.10
2022-12-23T01:07:34.376Z,999.15
2022-12-23T01:08:34.345Z,999.14
2022-12-23T01:09:34.372Z,999.19
2022-12-23T01:10:34.777Z,999.18
2022-12-23T01:11:34.343Z,999.16
2022-12-23T01:12:34.420Z,999.17
2022-12-23T01:13:34.329Z,999.12
2022-12-23T01:14:34.313Z,999.18
2022-12-23T01:15:34.332Z,999.17
2022-12-23T01:16:34.296Z,999.16
2022-12-23T01:17:34.257Z,999.11
2022-12-23T01:18:34.237Z,999.18
2022-12-23T01:19:34.207Z,999.15
2022-12-23T01:20:34.217Z,999.17
2022-12-23T01:21:34.304Z,999.16
2022-12-23T01:22:34.173Z,999.20
2022-12-23T01:23:34.162Z,999.20
2022-12-23T01:24:34.146Z,999.20
2022-12-23T01:25:38.811Z,999.29
2022-12-23T01:26:34.114Z,999.28
2022-12-23T01:27:34.223Z,999.31
2022-12-23T01:28:35.065Z,999.30
2022-12-23T01:29:34.394Z,999.30
2022-12-23T01:30:34.091Z,999.29
2022-12-23T01:31:34.151Z,999.22
2022-12-23T01:32:34.054Z,999.24
2022-12-23T01:33:34.152Z,999.27
2022-12-23T01:34:37.178Z,999.28
2022-12-23T01:35:34.006Z,999.38
2022-12-23T01:36:33.995Z,999.34
2022-12-23T01:37:34.255Z,999.34
2022-12-23T01:38:33.990Z,999.37
2022-12-23T01:39:37.974Z,999.43
2022-12-23T01:40:33.967Z,999.39
2022-12-23T01:41:33.936Z,999.47
2022-12-23T01:42:34.406Z,999.45
2022-12-23T01:43:33.920Z,999.49
2022-12-23T01:44:33.898Z,999.48
2022-12-23T01:45:33.930Z,999.48
2022-12-23T01:46:33.940Z,999.49
2022-12-23T01:47:33.863Z,999.53
2022-12-23T01:48:33.859Z,999.49
2022-12-23T01:49:33.867Z,999.49
2022-12-23T01:50:34.101Z,999.55
2022-12-23T01:51:33.830Z,999.55
2022-12-23T01:52:33.806Z,999.58
2022-12-23T01:53:33.786Z,999.47
2022-12-23T01:54:33.783Z,999.56
2022-12-23T01:55:33.751Z,999.55
2022-12-23T01:56:33.732Z,999.63
2022-12-23T01:57:33.877Z,999.59
2022-12-23T01:58:33.725Z,999.59
2022-12-23T01:59:33.713Z,999.56
2022-12-23T02:00:34.289Z,999.57
2022-12-23T02:01:33.903Z,999.60
2022-12-23T02:02:33.832Z,999.62
2022-12-23T02:03:33.755Z,999.67
2022-12-23T02:04:33.646Z,999.66
2022-12-23T02:05:33.655Z,999.63
2022-12-23T02:06:33.617Z,999.62
2022-12-23T02:07:33.637Z,999.69
2022-12-23T02:08:33.595Z,999.65
2022-12-23T02:09:33.895Z,999.60
2022-12-23T02:10:33.582Z,999.74
2022-12-23T02:11:33.556Z,999.64
2022-12-23T02:12:33.566Z,999.66
2022-12-23T02:13:33.529Z,999.68
2022-12-23T02:14:33.508Z,999.68
2022-12-23T02:15:33.534Z,999.63
2022-12-23T02:16:33.519Z,999.65
2022-12-23T02:17:33.468Z,999.71
2022-12-23T02:18:33.485Z,999.76
2022-12-23T02:19:33.459Z,999.72
2022-12-23T02:20:33.442Z,999.77
2022-12-23T02:21:33.457Z,999.78
2022-12-23T02:22:33.411Z,999.88
2022-12-23T02:23:33.932Z,999.77
2022-12-23T02:24:33.435Z,999.82
2022-12-23T02:25:33.398Z,999.75
2022-12-23T02:26:34.050Z,999.75
2022-12-23T02:27:33.666Z,999.81
2022-12-23T02:28:33.617Z,999.85
2022-12-23T02:29:33.321Z,999.76
2022-12-23T02:30:33.349Z,999.80
2022-12-23T02:31:33.298Z,999.88
2022-12-23T02:32:33.277Z,999.86
2022-12-23T02:33:33.407Z,999.83
2022-12-23T02:34:33.410Z,999.86
2022-12-23T02:35:33.260Z,999.80
2022-12-23T02:36:33.235Z,999.83
2022-12-23T02:37:33.509Z,999.78
2022-12-23T02:38:33.214Z,999.87
2022-12-23T02:39:33.236Z,999.91
2022-12-23T02:40:33.175Z,999.90
2022-12-23T02:41:37.125Z,999.90
2022-12-23T02:42:33.157Z,999.85
2022-12-23T02:43:33.159Z,999.92
2022-12-23T02:44:33.418Z,999.95
2022-12-23T02:45:33.150Z,999.98
2022-12-23T02:46:33.417Z,999.95
2022-12-23T02:47:33.092Z,999.98
2022-12-23T02:48:33.076Z,1000.02
2022-12-23T02:49:33.083Z,1000.02
2022-12-23T02:50:33.294Z,1000.03
2022-12-23T02:51:33.069Z,1000.04
2022-12-23T02:52:33.030Z,1000.02
2022-12-23T02:53:33.278Z,1000.07
2022-12-23T02:54:33.005Z,1000.00
2022-12-23T02:55:33.027Z,1000.07
2022-12-23T02:56:32.972Z,1000.06
2022-12-23T02:57:33.117Z,1000.12
2022-12-23T02:58:32.959Z,1000.12
2022-12-23T02:59:32.964Z,1000.12
2022-12-23T03:00:32.947Z,1000.16
2022-12-23T03:01:33.051Z,1000.10
2022-12-23T03:02:33.135Z,1000.19
2022-12-23T03:03:33.049Z,1000.14
2022-12-23T03:04:32.892Z,1000.19
2022-12-23T03:05:36.869Z,1000.22
2022-12-23T03:06:33.622Z,1000.18
2022-12-23T03:07:36.682Z,1000.17
2022-12-23T03:08:33.110Z,1000.16
2022-12-23T03:09:36.739Z,1000.13
2022-12-23T03:10:33.553Z,1000.16
2022-12-23T03:11:33.919Z,1000.21
2022-12-23T03:12:32.788Z,1000.24
2022-12-23T03:13:36.617Z,1000.25
2022-12-23T03:14:33.568Z,1000.26
2022-12-23T03:15:32.812Z,1000.32
2022-12-23T03:16:32.735Z,1000.29
2022-12-23T03:17:32.707Z,1000.29
2022-12-23T03:18:32.992Z,1000.33
2022-12-23T03:19:32.691Z,1000.31
2022-12-23T03:20:33.272Z,1000.45
2022-12-23T03:21:32.719Z,1000.38
2022-12-23T03:22:32.646Z,1000.40
2022-12-23T03:23:32.649Z,1000.40
2022-12-23T03:24:36.576Z,1000.45
2022-12-23T03:25:32.615Z,1000.47
2022-12-23T03:26:32.596Z,1000.49
2022-12-23T03:27:32.714Z,1000.44
2022-12-23T03:28:32.579Z,1000.51
2022-12-23T03:29:32.583Z,1000.44
2022-12-23T03:30:32.559Z,1000.53
2022-12-23T03:31:32.836Z,1000.57
2022-12-23T03:32:33.277Z,1000.52
2022-12-23T03:33:32.548Z,1000.47
2022-12-23T03:34:33.234Z,1000.52
2022-12-23T03:35:32.495Z,1000.55
2022-12-23T03:36:36.720Z,1000.46
2022-12-23T03:37:32.503Z,1000.59
2022-12-23T03:38:32.457Z,1000.49
2022-12-23T03:39:32.518Z,1000.53
2022-12-23T03:40:32.744Z,1000.48
2022-12-23T03:41:32.421Z,1000.50
2022-12-23T03:42:32.703Z,1000.54
2022-12-23T03:43:32.397Z,1000.57
2022-12-23T03:44:32.411Z,1000.60
2022-12-23T03:45:41.125Z,1000.58
2022-12-23T03:46:33.402Z,1000.66
2022-12-23T03:47:32.337Z,1000.59
2022-12-23T03:48:32.335Z,1000.65
2022-12-23T03:49:32.321Z,1000.69
2022-12-23T03:50:32.406Z,1000.66
2022-12-23T03:51:32.344Z,1000.62
2022-12-23T03:52:32.288Z,1000.62
2022-12-23T03:53:32.569Z,1000.72
2022-12-23T03:54:32.255Z,1000.70
2022-12-23T03:55:32.243Z,1000.71
2022-12-23T03:56:32.418Z,1000.70
2022-12-23T03:57:32.220Z,1000.69
2022-12-23T03:58:32.230Z,1000.76
2022-12-23T03:59:32.186Z,1000.81
2022-12-23T04:00:32.193Z,1000.82
2022-12-23T04:01:32.274Z,1000.76
2022-12-23T04:02:32.297Z,1000.79
2022-12-23T04:03:32.161Z,1000.84
2022-12-23T04:04:32.144Z,1000.84
2022-12-23T04:05:32.120Z,1000.88
2022-12-23T04:06:36.140Z,1000.84
2022-12-23T04:07:32.102Z,1000.84
2022-12-23T04:08:32.293Z,1000.87
2022-12-23T04:09:32.065Z,1000.86
2022-12-23T04:10:32.067Z,1000.82
2022-12-23T04:11:32.733Z,1000.86
2022-12-23T04:12:32.036Z,1000.88
2022-12-23T04:13:32.031Z,1000.88
2022-12-23T04:14:32.043Z,1000.94
2022-12-23T04:15:32.989Z,1000.90
2022-12-23T04:16:32.303Z,1000.90
2022-12-23T04:17:31.990Z,1001.01
2022-12-23T04:18:31.954Z,1000.96
2022-12-23T04:19:32.192Z,1001.06
2022-12-23T04:20:35.809Z,1000.94
2022-12-23T04:21:32.194Z,1001.07
2022-12-23T04:22:31.918Z,1001.04
2022-12-23T04:23:32.170Z,1001.01
2022-12-23T04:24:31.944Z,1001.01
2022-12-23T04:25:32.698Z,1001.09
2022-12-23T04:26:32.220Z,1001.07
2022-12-23T04:27:31.892Z,1001.07
2022-12-23T04:28:31.847Z,1001.05
2022-12-23T04:29:32.657Z,1001.08
2022-12-23T04:30:34.664Z,1001.08
2022-12-23T04:31:32.111Z,1001.07
2022-12-23T04:32:31.847Z,1001.09
2022-12-23T04:33:31.781Z,1001.04
2022-12-23T04:34:31.759Z,1001.09
2022-12-23T04:35:31.766Z,1001.06
2022-12-23T04:36:31.754Z,1001.09
2022-12-23T04:37:31.713Z,1000.98
2022-12-23T04:38:31.817Z,1001.05
2022-12-23T04:39:32.515Z,1001.02
2022-12-23T04:40:31.675Z,1001.08
2022-12-23T04:41:32.348Z,1001.03
2022-12-23T04:42:31.662Z,1001.09
2022-12-23T04:43:32.472Z,1001.07
2022-12-23T04:44:32.464Z,1001.03
2022-12-23T04:45:31.616Z,1000.99
2022-12-23T04:46:31.652Z,1001.11
2022-12-23T04:47:31.608Z,1001.11
2022-12-23T04:48:32.353Z,1001.10
2022-12-23T04:49:31.868Z,1001.10
2022-12-23T04:50:31.677Z,1001.12
2022-12-23T04:51:31.546Z,1001.11
2022-12-23T04:52:31.564Z,1001.15
2022-12-23T04:53:31.508Z,1001.14
2022-12-23T04:54:31.515Z,1001.16
2022-12-23T04:55:31.513Z,1001.13
2022-12-23T04:56:31.513Z,1001.16
2022-12-23T04:57:31.472Z,1001.20
2022-12-23T04:58:31.463Z,1001.21
2022-12-23T04:59:31.470Z,1001.20
2022-12-23T05:00:37.124Z,1001.17
2022-12-23T05:01:32.532Z,1001.22
2022-12-23T05:02:31.475Z,1001.28
2022-12-23T05:03:31.556Z,1001.32
2022-12-23T05:04:32.226Z,1001.28
2022-12-23T05:05:31.363Z,1001.28
2022-12-23T05:06:31.377Z,1001.33
2022-12-23T05:07:31.342Z,1001.29
2022-12-23T05:08:31.372Z,1001.34
2022-12-23T05:09:31.328Z,1001.39
2022-12-23T05:10:32.022Z,1001.37
2022-12-23T05:11:31.422Z,1001.41
2022-12-23T05:12:31.364Z,1001.29
2022-12-23T05:13:31.263Z,1001.41
2022-12-23T05:14:31.264Z,1001.50
2022-12-23T05:15:32.079Z,1001.47
2022-12-23T05:16:31.341Z,1001.47
2022-12-23T05:17:31.229Z,1001.57
2022-12-23T05:18:31.248Z,1001.51
2022-12-23T05:19:31.482Z,1001.51
2022-12-23T05:20:31.185Z,1001.52
2022-12-23T05:21:31.438Z,1001.52
2022-12-23T05:22:31.150Z,1001.50
2022-12-23T05:23:31.164Z,1001.52
2022-12-23T05:24:31.545Z,1001.50
2022-12-23T05:25:31.128Z,1001.52
2022-12-23T05:26:31.111Z,1001.52
2022-12-23T05:27:31.909Z,1001.48
2022-12-23T05:28:31.361Z,1001.51
2022-12-23T05:29:31.071Z,1001.58
2022-12-23T05:30:31.102Z,1001.52
2022-12-23T05:31:31.090Z,1001.51
2022-12-23T05:32:31.021Z,1001.55
2022-12-23T05:33:31.185Z,1001.52
2022-12-23T05:34:31.158Z,1001.50
2022-12-23T05:35:31.028Z,1001.56
2022-12-23T05:36:31.289Z,1001.44
2022-12-23T05:37:30.971Z,1001.39
2022-12-23T05:38:30.948Z,1001.49
2022-12-23T05:39:30.964Z,1001.50
2022-12-23T05:40:31.699Z,1001.44
2022-12-23T05:41:34.949Z,1001.49
2022-12-23T05:42:32.355Z,1001.42
2022-12-23T05:43:30.882Z,1001.45
2022-12-23T05:44:30.871Z,1001.50
2022-12-23T05:45:31.147Z,1001.46
2022-12-23T05:46:30.884Z,1001.45
2022-12-23T05:47:51.906Z,1001.47
2022-12-23T05:48:30.887Z,1001.53
2022-12-23T05:49:30.828Z,1001.52
2022-12-23T05:50:31.207Z,1001.52
2022-12-23T05:51:30.807Z,1001.54
2022-12-23T05:52:30.785Z,1001.55
2022-12-23T05:53:30.899Z,1001.55
2022-12-23T05:54:30.760Z,1001.54
2022-12-23T05:55:30.736Z,1001.50
2022-12-23T05:56:30.734Z,1001.55
2022-12-23T05:57:31.138Z,1001.47
2022-12-23T05:58:30.701Z,1001.51
2022-12-23T05:59:31.483Z,1001.54
2022-12-23T06:00:30.668Z,1001.54
2022-12-23T06:01:31.493Z,1001.55
2022-12-23T06:02:31.192Z,1001.59
2022-12-23T06:03:30.896Z,1001.61
2022-12-23T06:04:30.613Z,1001.61
2022-12-23T06:05:30.673Z,1001.54
2022-12-23T06:06:30.866Z,1001.53
2022-12-23T06:07:30.595Z,1001.64
2022-12-23T06:08:30.574Z,1001.60
2022-12-23T06:09:30.771Z,1001.60
2022-12-23T06:10:30.546Z,1001.57
2022-12-23T06:11:42.317Z,1001.58
2022-12-23T06:12:30.516Z,1001.66
2022-12-23T06:13:30.497Z,1001.63
2022-12-23T06:14:30.507Z,1001.65
2022-12-23T06:15:30.506Z,1001.71
2022-12-23T06:16:34.248Z,1001.72
2022-12-23T06:17:30.594Z,1001.80
2022-12-23T06:18:30.462Z,1001.82
2022-12-23T06:19:30.459Z,1001.86
2022-12-23T06:20:30.449Z,1001.87
2022-12-23T06:21:30.425Z,1001.86
2022-12-23T06:22:30.396Z,1001.81
2022-12-23T06:23:30.521Z,1001.81
2022-12-23T06:24:31.191Z,1001.89
2022-12-23T06:25:30.359Z,1001.89
2022-12-23T06:26:30.637Z,1001.89
2022-12-23T06:27:31.137Z,1001.93
2022-12-23T06:28:30.319Z,1001.88
2022-12-23T06:29:31.120Z,1001.93
2022-12-23T06:30:30.311Z,1001.89
2022-12-23T06:31:30.391Z,1001.91
2022-12-23T06:32:34.521Z,1001.94
2022-12-23T06:33:31.275Z,1001.94
2022-12-23T06:34:30.419Z,1001.93
2022-12-23T06:35:30.266Z,1001.99
2022-12-23T06:36:30.229Z,1001.93
2022-12-23T06:37:30.296Z,1002.00
2022-12-23T06:38:30.187Z,1002.00
2022-12-23T06:39:30.206Z,1001.95
2022-12-23T06:40:30.162Z,1001.94
2022-12-23T06:41:30.610Z,1001.94
2022-12-23T06:42:30.142Z,1002.02
2022-12-23T06:43:30.133Z,1002.00
2022-12-23T06:44:30.134Z,1002.02
2022-12-23T06:45:30.158Z,1002.10
2022-12-23T06:46:30.351Z,1002.06
2022-12-23T06:47:30.254Z,1002.03
2022-12-23T06:48:30.075Z,1002.10
2022-12-23T06:49:34.088Z,1002.09
2022-12-23T06:50:30.646Z,1002.01
2022-12-23T06:51:30.856Z,1002.17
2022-12-23T06:52:30.840Z,1002.09
2022-12-23T06:53:30.228Z,1002.13
2022-12-23T06:54:29.986Z,1002.16
2022-12-23T06:55:30.806Z,1002.14
2022-12-23T06:56:30.738Z,1002.12
2022-12-23T06:57:30.176Z,1002.13
2022-12-23T06:58:30.220Z,1002.16
2022-12-23T06:59:30.391Z,1002.08
2022-12-23T07:00:30.296Z,1002.10
2022-12-23T07:01:30.834Z,1002.19
2022-12-23T07:02:29.939Z,1002.09
2022-12-23T07:03:29.970Z,1002.21
2022-12-23T07:04:29.872Z,1002.21
2022-12-23T07:05:36.670Z,1002.17
2022-12-23T07:06:31.081Z,1002.21
2022-12-23T07:07:30.520Z,1002.20
2022-12-23T07:08:29.876Z,1002.19
2022-12-23T07:09:29.810Z,1002.23
2022-12-23T07:10:30.755Z,1002.20
2022-12-23T07:11:30.065Z,1002.26
2022-12-23T07:12:29.782Z,1002.25
2022-12-23T07:13:30.495Z,1002.31
2022-12-23T07:14:30.132Z,1002.29
2022-12-23T07:15:30.523Z,1002.30
2022-12-23T07:16:29.771Z,1002.31
2022-12-23T07:17:30.554Z,1002.35
2022-12-23T07:18:29.725Z,1002.30
2022-12-23T07:19:29.687Z,1002.32
2022-12-23T07:20:30.495Z,1002.39
2022-12-23T07:21:30.482Z,1002.39
2022-12-23T07:22:29.651Z,1002.37
2022-12-23T07:23:29.773Z,1002.34
2022-12-23T07:24:29.668Z,1002.29
2022-12-23T07:25:29.624Z,1002.30
2022-12-23T07:26:29.617Z,1002.22
2022-12-23T07:27:30.427Z,1002.31
2022-12-23T07:28:29.894Z,1002.27
2022-12-23T07:29:29.668Z,1002.36
2022-12-23T07:30:29.707Z,1002.29
2022-12-23T07:31:29.815Z,1002.31
2022-12-23T07:32:29.675Z,1002.31
2022-12-23T07:33:29.570Z,1002.36
2022-12-23T07:34:29.788Z,1002.37
2022-12-23T07:35:29.520Z,1002.43
2022-12-23T07:36:29.840Z,1002.48
2022-12-23T07:37:30.406Z,1002.45
2022-12-23T07:38:29.662Z,1002.41
2022-12-23T07:39:29.426Z,1002.39
2022-12-23T07:40:29.410Z,1002.51
2022-12-23T07:41:29.936Z,1002.50
2022-12-23T07:42:46.874Z,1002.48
2022-12-23T07:43:30.392Z,1002.56
2022-12-23T07:44:29.830Z,1002.56
2022-12-23T07:45:29.517Z,1002.61
2022-12-23T07:46:30.138Z,1002.69
2022-12-23T07:47:29.676Z,1002.67
2022-12-23T07:48:29.666Z,1002.73
2022-12-23T07:49:29.971Z,1002.81
2022-12-23T07:50:29.684Z,1002.80
2022-12-23T07:51:30.113Z,1002.94
2022-12-23T07:52:29.927Z,1002.90
2022-12-23T07:53:30.163Z,1002.97
2022-12-23T07:54:30.064Z,1002.93
2022-12-23T07:55:29.688Z,1002.95
2022-12-23T07:56:29.308Z,1002.88
2022-12-23T07:57:30.021Z,1002.91
2022-12-23T07:58:29.215Z,1002.92
2022-12-23T07:59:30.063Z,1002.84
2022-12-23T08:00:29.487Z,1002.83
2022-12-23T08:01:29.515Z,1002.76
2022-12-23T08:02:29.900Z,1002.76
2022-12-23T08:03:29.277Z,1002.77
2022-12-23T08:04:29.729Z,1002.70
2022-12-23T08:05:29.248Z,1002.77
2022-12-23T08:06:30.068Z,1002.78
2022-12-23T08:07:29.488Z,1002.83
2022-12-23T08:08:29.181Z,1002.86
2022-12-23T08:09:29.049Z,1002.77
2022-12-23T08:10:30.023Z,1002.81
2022-12-23T08:11:29.059Z,1002.85
2022-12-23T08:12:29.193Z,1002.81
2022-12-23T08:13:29.022Z,1002.86
2022-12-23T08:14:29.033Z,1002.83
2022-12-23T08:15:29.029Z,1002.86
2022-12-23T08:16:29.048Z,1002.86
2022-12-23T08:17:30.203Z,1002.85
2022-12-23T08:18:29.920Z,1002.79
2022-12-23T08:19:29.134Z,1002.86
2022-12-23T08:20:29.030Z,1002.83
2022-12-23T08:21:29.044Z,1002.87
2022-12-23T08:22:28.918Z,1002.92
2022-12-23T08:23:28.924Z,1002.84
2022-12-23T08:24:28.953Z,1002.82
2022-12-23T08:25:28.948Z,1002.84
2022-12-23T08:26:28.972Z,1002.83
2022-12-23T08:27:28.974Z,1002.86
2022-12-23T08:28:29.668Z,1002.91
2022-12-23T08:29:35.796Z,1002.91
2022-12-23T08:30:30.253Z,1002.89
2022-12-23T08:31:28.914Z,1002.90
2022-12-23T08:32:28.785Z,1002.87
2022-12-23T08:33:28.772Z,1002.85
2022-12-23T08:34:29.705Z,1002.88
2022-12-23T08:35:29.006Z,1002.81
2022-12-23T08:36:29.020Z,1002.82
2022-12-23T08:37:29.942Z,1002.78
2022-12-23T08:38:29.035Z,1002.80
2022-12-23T08:39:28.714Z,1002.83
2022-12-23T08:40:29.885Z,1002.87
2022-12-23T08:41:28.836Z,1002.81
2022-12-23T08:42:29.030Z,1002.86
2022-12-23T08:43:35.269Z,1002.95
2022-12-23T08:44:29.695Z,1002.85
2022-12-23T08:45:28.795Z,1002.89
2022-12-23T08:46:29.599Z,1002.81
2022-12-23T08:47:29.009Z,1002.85
2022-12-23T08:48:28.552Z,1002.78
2022-12-23T08:49:28.539Z,1002.75
2022-12-23T08:50:29.734Z,1002.74
2022-12-23T08:51:28.963Z,1002.80
2022-12-23T08:52:29.514Z,1002.70
2022-12-23T08:53:28.696Z,1002.69
2022-12-23T08:54:29.495Z,1002.69
2022-12-23T08:55:28.771Z,1002.75
2022-12-23T08:56:28.454Z,1002.73
2022-12-23T08:57:28.821Z,1002.70
2022-12-23T08:58:29.110Z,1002.67
2022-12-23T08:59:28.995Z,1002.68
2022-12-23T09:00:29.282Z,1002.73
2022-12-23T09:01:28.680Z,1002.73
2022-12-23T09:02:28.654Z,1002.69
2022-12-23T09:03:28.645Z,1002.71
2022-12-23T09:04:29.004Z,1002.74
2022-12-23T09:05:28.669Z,1002.79
2022-12-23T09:06:30.595Z,1002.68
2022-12-23T09:07:28.321Z,1002.76
2022-12-23T09:08:28.784Z,1002.72
2022-12-23T09:09:28.283Z,1002.76
2022-12-23T09:10:28.300Z,1002.74
2022-12-23T09:11:28.914Z,1002.75
2022-12-23T09:12:28.261Z,1002.71
2022-12-23T09:13:36.762Z,1002.70
2022-12-23T09:14:30.172Z,1002.69
2022-12-23T09:15:36.012Z,1002.71
2022-12-23T09:16:28.584Z,1002.76
2022-12-23T09:17:28.349Z,1002.72
2022-12-23T09:18:32.032Z,1002.73
2022-12-23T09:19:28.987Z,1002.75
2022-12-23T09:20:28.415Z,1002.74
2022-12-23T09:21:28.895Z,1002.81
2022-12-23T09:22:28.134Z,1002.83
2022-12-23T09:23:28.811Z,1002.79
2022-12-23T09:24:28.130Z,1002.81
2022-12-23T09:25:28.354Z,1002.86
2022-12-23T09:26:28.090Z,1002.84
2022-12-23T09:27:28.073Z,1002.87
2022-12-23T09:28:28.267Z,1002.83
2022-12-23T09:29:28.063Z,1002.88
2022-12-23T09:30:28.311Z,1002.81
2022-12-23T09:31:35.806Z,1002.85
2022-12-23T09:32:29.215Z,1002.83
2022-12-23T09:33:28.270Z,1002.85
2022-12-23T09:34:27.994Z,1002.86
2022-12-23T09:35:28.424Z,1002.84
2022-12-23T09:36:28.123Z,1002.80
2022-12-23T09:37:28.435Z,1002.78
2022-12-23T09:38:28.480Z,1002.78
2022-12-23T09:39:28.142Z,1002.75
2022-12-23T09:40:27.919Z,1002.78
2022-12-23T09:41:28.253Z,1002.74
2022-12-23T09:42:27.911Z,1002.71
2022-12-23T09:43:28.159Z,1002.69
2022-12-23T09:44:32.661Z,1002.64
2022-12-23T09:45:28.623Z,1002.60
2022-12-23T09:46:28.101Z,1002.63
2022-12-23T09:47:28.532Z,1002.65
2022-12-23T09:48:28.636Z,1002.55
2022-12-23T09:49:28.558Z,1002.63
2022-12-23T09:50:28.605Z,1002.56
2022-12-23T09:51:28.485Z,1002.57
2022-12-23T09:52:27.777Z,1002.57
2022-12-23T09:53:27.864Z,1002.57
2022-12-23T09:54:28.250Z,1002.59
2022-12-23T09:55:28.541Z,1002.60
2022-12-23T09:56:35.430Z,1002.53
2022-12-23T09:57:27.682Z,1002.60
2022-12-23T09:58:27.675Z,1002.58
2022-12-23T09:59:28.489Z,1002.54
2022-12-23T10:00:27.768Z,1002.53
2022-12-23T10:01:28.527Z,1002.52
2022-12-23T10:02:28.449Z,1002.53
2022-12-23T10:03:28.655Z,1002.54
2022-12-23T10:04:27.657Z,1002.47
2022-12-23T10:05:28.098Z,1002.49
2022-12-23T10:06:28.390Z,1002.54
2022-12-23T10:07:27.587Z,1002.53
2022-12-23T10:08:27.661Z,1002.57
2022-12-23T10:09:28.620Z,1002.52
2022-12-23T10:10:28.490Z,1002.46
2022-12-23T10:11:27.745Z,1002.50
2022-12-23T10:12:30.758Z,1002.47
2022-12-23T10:13:28.500Z,1002.45
2022-12-23T10:14:28.292Z,1002.49
2022-12-23T10:15:28.223Z,1002.47
2022-12-23T10:16:27.535Z,1002.47
2022-12-23T10:17:29.017Z,1002.42
2022-12-23T10:18:27.871Z,1002.39
2022-12-23T10:19:28.223Z,1002.35
2022-12-23T10:20:27.554Z,1002.40
2022-12-23T10:21:27.396Z,1002.39
2022-12-23T10:22:27.781Z,1002.43
2022-12-23T10:23:27.428Z,1002.42
2022-12-23T10:24:27.776Z,1002.23
2022-12-23T10:25:27.466Z,1002.28
2022-12-23T10:26:27.505Z,1002.29
2022-12-23T10:27:29.525Z,1002.29
2022-12-23T10:28:30.114Z,1002.33
2022-12-23T10:29:27.385Z,1002.26
2022-12-23T10:30:56.825Z,1002.25
2022-12-23T10:31:40.320Z,1002.27
2022-12-23T10:32:29.382Z,1002.29
2022-12-23T10:33:27.698Z,1002.30
2022-12-23T10:34:27.255Z,1002.29
2022-12-23T10:35:28.049Z,1002.23
2022-12-23T10:36:27.825Z,1002.20
2022-12-23T10:37:28.952Z,1002.23
2022-12-23T10:38:27.231Z,1002.19
2022-12-23T10:39:27.639Z,1002.21
2022-12-23T10:40:27.161Z,1002.23
2022-12-23T10:41:27.854Z,1002.19
2022-12-23T10:42:27.921Z,1002.16
2022-12-23T10:43:28.071Z,1002.12
2022-12-23T10:44:27.615Z,1002.10
2022-12-23T10:45:27.381Z,1002.16
2022-12-23T10:46:27.447Z,1002.14
2022-12-23T10:47:28.001Z,1002.12
2022-12-23T10:48:28.018Z,1002.15
2022-12-23T10:49:27.053Z,1002.07
2022-12-23T10:50:27.282Z,1002.07
2022-12-23T10:51:27.858Z,1002.08
2022-12-23T10:52:27.813Z,1002.07
2022-12-23T10:53:31.422Z,1002.00
2022-12-23T10:54:27.561Z,1002.02
2022-12-23T10:55:33.251Z,1001.98
2022-12-23T10:56:28.263Z,1002.00
2022-12-23T10:57:27.814Z,1002.02
2022-12-23T10:58:26.942Z,1002.03
2022-12-23T10:59:27.323Z,1001.97
2022-12-23T11:00:26.989Z,1001.97
2022-12-23T11:01:27.697Z,1001.90
2022-12-23T11:02:27.850Z,1001.89
2022-12-23T11:03:27.014Z,1001.88
2022-12-23T11:04:26.904Z,1001.84
2022-12-23T11:05:27.256Z,1001.83
2022-12-23T11:06:31.492Z,1001.79
2022-12-23T11:07:45.418Z,1001.81
2022-12-23T11:08:28.067Z,1001.68
2022-12-23T11:09:26.898Z,1001.67
2022-12-23T11:10:26.898Z,1001.68
2022-12-23T11:11:26.763Z,1001.68
2022-12-23T11:12:26.883Z,1001.63
2022-12-23T11:13:27.712Z,1001.67
2022-12-23T11:14:26.781Z,1001.67
2022-12-23T11:15:27.556Z,1001.58
2022-12-23T11:16:26.758Z,1001.61
2022-12-23T11:17:30.595Z,1001.54
2022-12-23T11:18:26.747Z,1001.62
2022-12-23T11:19:26.768Z,1001.54
2022-12-23T11:20:27.201Z,1001.53
2022-12-23T11:21:26.682Z,1001.49
2022-12-23T11:22:26.840Z,1001.49
2022-12-23T11:23:28.486Z,1001.45
2022-12-23T11:24:26.605Z,1001.46
2022-12-23T11:25:26.595Z,1001.45
2022-12-23T11:26:26.596Z,1001.38
2022-12-23T11:27:26.900Z,1001.45
2022-12-23T11:28:26.563Z,1001.40
2022-12-23T11:29:26.563Z,1001.37
2022-12-23T11:30:26.874Z,1001.39
2022-12-23T11:31:27.286Z,1001.34
2022-12-23T11:32:26.569Z,1001.33
2022-12-23T11:33:28.438Z,1001.36
2022-12-23T11:34:27.117Z,1001.41
2022-12-23T11:35:27.888Z,1001.33
2022-12-23T11:36:26.495Z,1001.37
2022-12-23T11:37:28.255Z,1001.33
2022-12-23T11:38:26.422Z,1001.30
2022-12-23T11:39:26.826Z,1001.28
2022-12-23T11:40:27.196Z,1001.18
2022-12-23T11:41:26.878Z,1001.18
2022-12-23T11:42:26.378Z,1001.20
2022-12-23T11:43:26.869Z,1001.12
2022-12-23T11:44:26.368Z,1001.10
2022-12-23T11:45:26.969Z,1001.10
2022-12-23T11:46:26.724Z,1001.08
2022-12-23T11:47:27.066Z,1001.07
2022-12-23T11:48:26.858Z,1001.04
2022-12-23T11:49:26.297Z,1001.04
2022-12-23T11:50:26.637Z,1001.04
2022-12-23T11:51:26.308Z,1001.05
2022-12-23T11:52:27.197Z,1000.97
2022-12-23T11:53:26.944Z,1001.00
2022-12-23T11:54:26.252Z,1000.96
2022-12-23T11:55:26.368Z,1000.97
2022-12-23T11:56:26.916Z,1000.91
2022-12-23T11:57:26.339Z,1000.92
2022-12-23T11:58:26.856Z,1000.92
2022-12-23T11:59:26.539Z,1000.97
2022-12-23T12:00:27.597Z,1000.94
2022-12-23T12:01:26.150Z,1000.97
2022-12-23T12:02:27.677Z,1000.88
2022-12-23T12:03:26.881Z,1000.87
2022-12-23T12:04:26.100Z,1000.90
2022-12-23T12:05:26.879Z,1000.85
2022-12-23T12:06:26.861Z,1000.82
2022-12-23T12:07:26.064Z,1000.75
2022-12-23T12:08:26.314Z,1000.75
2022-12-23T12:09:26.162Z,1000.77
2022-12-23T12:10:26.601Z,1000.74